Time;durP1;ratioP1;P1;durP2;ratioP2;P2;SDS_P1;SDS_P2;PMS_P1;PMS_P2;Temp;Humidity;BMP_temperature;BMP_pressure;BME280_temperature;BME280_humidity;BME280_pressure;Samples;Min_cycle;Max_cycle;Signal;HPM_P1;HPM_P2
2022/04/01 00:00:12;;;;;;;11.17;4.70;;;;;;;;;;5087049;28;20285;-77
2022/04/01 00:02:38;;;;;;;12.83;4.63;;;;;;;;;;5087522;28;20043;-77
2022/04/01 00:05:04;;;;;;;10.13;4.77;;;;;;;;;;5095697;28;20457;-77
2022/04/01 00:07:30;;;;;;;14.80;5.13;;;;;;;;;;5096903;28;20373;-77
2022/04/01 00:09:57;;;;;;;11.23;5.97;;;;;;;;;;5079279;28;20305;-77
2022/04/01 00:12:23;;;;;;;12.40;5.40;;;;;;;;;;5086742;28;20289;-77
2022/04/01 00:14:49;;;;;;;12.73;4.70;;;;;;;;;;5089956;28;20818;-77
2022/04/01 00:17:15;;;;;;;14.07;5.20;;;;;;;;;;5098592;28;20779;-77
2022/04/01 00:19:41;;;;;;;13.00;5.40;;;;;;;;;;5098093;28;20791;-77
2022/04/01 00:22:07;;;;;;;11.67;4.87;;;;;;;;;;5098796;28;20301;-77
2022/04/01 00:24:33;;;;;;;12.63;5.63;;;;;;;;;;5096331;28;20282;-77
2022/04/01 00:27:00;;;;;;;11.07;4.80;;;;;;;;;;5099044;28;20289;-78
2022/04/01 00:29:27;;;;;;;10.97;4.73;;;;;;;;;;5077799;28;20309;-78
2022/04/01 00:32:01;;;;;;;13.67;4.80;;;;;;;;;;5099083;28;20653;-78
2022/04/01 00:34:27;;;;;;;13.63;5.22;;;;;;;;;;5082151;28;20316;-78
2022/04/01 00:36:54;;;;;;;13.47;4.93;;;;;;;;;;5101344;28;20643;-79
2022/04/01 00:39:21;;;;;;;11.17;4.80;;;;;;;;;;5100535;28;20298;-79
2022/04/01 00:41:49;;;;;;;10.23;5.10;;;;;;;;;;5099569;28;20290;-79
2022/04/01 00:44:15;;;;;;;9.03;3.87;;;;;;;;;;5094886;28;20382;-79
2022/04/01 00:46:45;;;;;;;13.17;5.27;;;;;;;;;;5099016;28;20290;-79
2022/04/01 00:49:11;;;;;;;10.27;4.13;;;;;;;;;;5087459;28;20694;-78
2022/04/01 00:51:38;;;;;;;7.63;3.70;;;;;;;;;;5090771;28;20886;-78
2022/04/01 00:54:07;;;;;;;9.37;4.20;;;;;;;;;;5090313;28;20290;-78
2022/04/01 00:56:34;;;;;;;6.83;3.40;;;;;;;;;;5075390;28;20286;-79
2022/04/01 00:59:00;;;;;;;9.93;2.83;;;;;;;;;;5093466;28;20787;-80
2022/04/01 01:01:26;;;;;;;8.33;3.40;;;;;;;;;;5101143;28;20305;-80
2022/04/01 01:03:53;;;;;;;7.77;3.43;;;;;;;;;;5077169;28;20302;-80
2022/04/01 01:06:20;;;;;;;8.17;3.27;;;;;;;;;;5082567;28;20333;-80
2022/04/01 01:08:47;;;;;;;6.47;2.70;;;;;;;;;;5079024;28;20623;-80
2022/04/01 01:11:14;;;;;;;8.60;3.23;;;;;;;;;;5077385;28;20297;-81
2022/04/01 01:13:40;;;;;;;6.20;2.73;;;;;;;;;;5100799;28;20281;-81
2022/04/01 01:16:07;;;;;;;10.17;3.00;;;;;;;;;;5081405;28;20286;-81
2022/04/01 01:18:33;;;;;;;6.60;3.03;;;;;;;;;;5098726;28;20274;-81
2022/04/01 01:20:59;;;;;;;7.97;2.63;;;;;;;;;;5100372;28;20296;-81
2022/04/01 01:23:32;;;;;;;8.47;2.67;;;;;;;;;;5099964;28;20327;-81
2022/04/01 01:25:58;;;;;;;8.50;2.53;;;;;;;;;;5098393;28;20310;-80
2022/04/01 01:28:24;;;;;;;7.90;3.03;;;;;;;;;;5080029;28;20826;-80
2022/04/01 01:30:50;;;;;;;6.77;3.20;;;;;;;;;;5083182;28;20297;-80
2022/04/01 01:33:20;;;;;;;5.53;2.50;;;;;;;;;;5076989;28;20293;-80
2022/04/01 01:35:46;;;;;;;4.97;2.17;;;;;;;;;;5090750;28;20293;-80
2022/04/01 01:38:13;;;;;;;7.00;2.80;;;;;;;;;;5072990;28;20294;-81
2022/04/01 01:40:39;;;;;;;13.20;2.83;;;;;;;;;;5089922;28;20294;-81
2022/04/01 01:43:05;;;;;;;6.83;2.70;;;;;;;;;;5072437;28;20303;-81
2022/04/01 01:45:32;;;;;;;6.20;2.40;;;;;;;;;;5090245;28;20367;-81
2022/04/01 01:47:58;;;;;;;7.47;2.80;;;;;;;;;;5088368;28;20362;-81
2022/04/01 01:55:53;;;;;;;7.83;2.93;;;;;;;;;;5090747;28;20298;-81
2022/04/01 01:58:20;;;;;;;7.53;2.73;;;;;;;;;;5091601;28;20290;-81
2022/04/01 02:00:46;;;;;;;7.00;3.30;;;;;;;;;;5090458;28;20852;-81
2022/04/01 02:03:12;;;;;;;7.90;2.87;;;;;;;;;;5072237;28;20282;-81
2022/04/01 02:05:38;;;;;;;7.73;2.57;;;;;;;;;;5072279;28;20827;-80
2022/04/01 02:08:05;;;;;;;7.97;2.87;;;;;;;;;;5090206;28;20359;-81
2022/04/01 02:10:32;;;;;;;9.97;3.60;;;;;;;;;;5090840;28;20483;-81
2022/04/01 02:12:58;;;;;;;6.73;2.80;;;;;;;;;;5055354;28;20282;-81
2022/04/01 02:15:25;;;;;;;4.43;2.53;;;;;;;;;;5072499;28;20040;-81
2022/04/01 02:17:51;;;;;;;8.10;2.80;;;;;;;;;;5071868;28;20332;-80
2022/04/01 02:20:17;;;;;;;6.33;2.90;;;;;;;;;;5083663;28;20625;-81
2022/04/01 02:22:44;;;;;;;6.77;3.00;;;;;;;;;;5089737;28;20783;-81
2022/04/01 02:25:11;;;;;;;8.23;3.33;;;;;;;;;;5089382;28;20306;-80
2022/04/01 02:27:37;;;;;;;5.53;2.97;;;;;;;;;;5071461;28;20286;-80
2022/04/01 02:30:10;;;;;;;7.23;3.07;;;;;;;;;;5072035;28;20087;-80
2022/04/01 02:32:37;;;;;;;7.93;3.03;;;;;;;;;;5071849;28;20823;-81
2022/04/01 02:35:04;;;;;;;9.47;3.37;;;;;;;;;;5089716;28;20347;-80
2022/04/01 02:37:30;;;;;;;9.07;3.13;;;;;;;;;;5089792;28;20300;-80
2022/04/01 02:39:56;;;;;;;10.23;3.63;;;;;;;;;;5098164;28;20796;-81
2022/04/01 02:42:22;;;;;;;6.73;3.17;;;;;;;;;;5089605;28;20282;-81
2022/04/01 02:44:48;;;;;;;6.27;2.87;;;;;;;;;;5071123;28;20304;-80
2022/04/01 02:47:14;;;;;;;5.93;2.97;;;;;;;;;;5071544;28;20278;-80
2022/04/01 02:49:40;;;;;;;9.47;3.53;;;;;;;;;;5053833;28;20286;-81
2022/04/01 02:52:06;;;;;;;8.97;3.60;;;;;;;;;;5091999;28;20351;-81
2022/04/01 02:54:35;;;;;;;7.17;3.60;;;;;;;;;;5088164;28;20285;-80
2022/04/01 02:57:05;;;;;;;7.27;3.17;;;;;;;;;;5084669;28;20325;-81
2022/04/01 02:59:31;;;;;;;8.63;3.30;;;;;;;;;;5069681;28;20340;-80
2022/04/01 03:01:57;;;;;;;9.97;3.13;;;;;;;;;;5088431;28;20130;-81
2022/04/01 03:04:23;;;;;;;6.33;3.37;;;;;;;;;;5070351;28;21192;-81
2022/04/01 03:06:49;;;;;;;7.43;3.20;;;;;;;;;;5078401;28;20709;-81
2022/04/01 03:09:16;;;;;;;8.77;3.77;;;;;;;;;;5097211;28;20294;-80
2022/04/01 03:11:42;;;;;;;8.17;2.97;;;;;;;;;;5099771;28;20290;-80
2022/04/01 03:14:09;;;;;;;8.70;3.30;;;;;;;;;;5097155;28;20288;-80
2022/04/01 03:16:37;;;;;;;9.53;2.90;;;;;;;;;;5097980;28;20339;-80
2022/04/01 03:19:03;;;;;;;6.33;2.90;;;;;;;;;;5097359;28;20286;-80
2022/04/01 03:21:30;;;;;;;6.73;3.17;;;;;;;;;;5081974;28;21012;-80
2022/04/01 03:23:56;;;;;;;8.90;3.50;;;;;;;;;;5078484;28;20282;-80
2022/04/01 03:26:22;;;;;;;4.90;2.60;;;;;;;;;;5080321;28;20877;-80
2022/04/01 03:28:48;;;;;;;9.57;3.10;;;;;;;;;;5080963;28;20294;-80
2022/04/01 03:31:14;;;;;;;7.10;3.17;;;;;;;;;;5079545;28;20297;-81
2022/04/01 03:33:44;;;;;;;8.10;3.00;;;;;;;;;;5097136;28;20969;-81
2022/04/01 03:36:10;;;;;;;8.20;2.67;;;;;;;;;;5073469;28;20300;-80
2022/04/01 03:38:36;;;;;;;9.00;3.30;;;;;;;;;;5079837;28;20297;-81
2022/04/01 03:41:05;;;;;;;12.23;3.17;;;;;;;;;;5079788;28;20309;-80
2022/04/01 03:43:34;;;;;;;7.50;2.83;;;;;;;;;;5089128;28;20287;-80
2022/04/01 03:46:04;;;;;;;6.93;3.00;;;;;;;;;;5096427;28;20370;-80
2022/04/01 03:48:35;;;;;;;9.00;3.20;;;;;;;;;;5096447;28;20270;-80
2022/04/01 03:51:01;;;;;;;6.77;2.87;;;;;;;;;;5096913;28;20381;-80
2022/04/01 03:53:28;;;;;;;6.73;3.40;;;;;;;;;;5096355;28;20278;-81
2022/04/01 03:55:55;;;;;;;5.67;3.20;;;;;;;;;;5096527;28;20373;-81
2022/04/01 03:58:32;;;;;;;7.50;2.60;;;;;;;;;;5097289;28;20853;-81
2022/04/01 04:01:01;;;;;;;5.33;2.77;;;;;;;;;;5097449;28;20854;-81
2022/04/01 04:03:29;;;;;;;7.90;3.90;;;;;;;;;;5076192;28;20282;-81
2022/04/01 04:05:56;;;;;;;5.80;2.93;;;;;;;;;;5087035;28;20344;-80
2022/04/01 04:08:23;;;;;;;6.47;3.00;;;;;;;;;;5096161;28;20292;-80
2022/04/01 04:10:50;;;;;;;6.50;2.80;;;;;;;;;;5081940;28;20340;-80
2022/04/01 04:13:16;;;;;;;6.40;2.53;;;;;;;;;;5101945;28;20285;-80
2022/04/01 04:16:04;;;;;;;5.83;2.40;;;;;;;;;;5102212;28;20281;-81
2022/04/01 04:18:33;;;;;;;8.10;2.50;;;;;;;;;;5073423;28;20784;-80
2022/04/01 04:21:04;;;;;;;6.27;2.10;;;;;;;;;;5100716;28;20304;-80
2022/04/01 04:23:33;;;;;;;8.40;3.00;;;;;;;;;;5099566;28;20301;-79
2022/04/01 04:26:01;;;;;;;7.10;2.73;;;;;;;;;;5093310;28;20313;-79
2022/04/01 04:28:27;;;;;;;5.00;2.70;;;;;;;;;;5092237;28;20656;-79
2022/04/01 04:30:55;;;;;;;6.87;2.70;;;;;;;;;;5091906;28;20752;-80
2022/04/01 04:33:28;;;;;;;8.03;2.70;;;;;;;;;;5073854;28;20317;-80
2022/04/01 04:35:54;;;;;;;7.47;2.15;;;;;;;;;;5092517;28;20048;-80
2022/04/01 04:38:22;;;;;;;5.00;2.23;;;;;;;;;;5091939;28;20040;-80
2022/04/01 04:40:48;;;;;;;6.00;2.80;;;;;;;;;;5086733;28;20297;-81
2022/04/01 04:43:21;;;;;;;7.67;2.40;;;;;;;;;;5089670;28;20332;-83
2022/04/01 04:45:49;;;;;;;8.05;2.58;;;;;;;;;;5091554;28;20363;-80
2022/04/01 04:48:16;;;;;;;6.27;2.80;;;;;;;;;;5092133;28;20079;-79
2022/04/01 04:50:46;;;;;;;7.77;2.97;;;;;;;;;;5091811;28;20290;-80
2022/04/01 04:53:13;;;;;;;4.93;2.40;;;;;;;;;;5073183;28;20298;-80
2022/04/01 04:55:40;;;;;;;4.87;2.40;;;;;;;;;;5091965;28;20290;-80
2022/04/01 04:58:09;;;;;;;5.20;2.33;;;;;;;;;;5091336;28;20278;-81
2022/04/01 05:00:36;;;;;;;7.73;2.27;;;;;;;;;;5076813;28;20300;-80
2022/04/01 05:03:21;;;;;;;5.37;2.70;;;;;;;;;;5110427;28;20317;-79
2022/04/01 05:05:48;;;;;;;4.20;2.20;;;;;;;;;;5111708;28;20316;-80
2022/04/01 05:08:26;;;;;;;4.60;2.20;;;;;;;;;;5098958;28;21172;-80
2022/04/01 05:11:11;;;;;;;5.30;2.10;;;;;;;;;;5101142;28;20297;-80
2022/04/01 05:13:55;;;;;;;5.70;2.57;;;;;;;;;;5111649;28;20304;-81
2022/04/01 05:16:36;;;;;;;4.97;2.30;;;;;;;;;;5111532;28;21116;-80
2022/04/01 05:19:05;;;;;;;5.83;2.07;;;;;;;;;;5093396;28;20633;-80
2022/04/01 05:21:38;;;;;;;8.33;2.63;;;;;;;;;;5092990;28;20333;-80
2022/04/01 05:24:06;;;;;;;7.13;2.42;;;;;;;;;;5092622;28;20388;-80
2022/04/01 05:26:38;;;;;;;4.93;2.53;;;;;;;;;;5109153;28;20051;-79
2022/04/01 05:29:07;;;;;;;6.67;3.63;;;;;;;;;;5104450;28;20342;-79
2022/04/01 05:31:37;;;;;;;7.27;2.70;;;;;;;;;;5110665;28;20802;-80
2022/04/01 05:34:23;;;;;;;3.47;2.03;;;;;;;;;;5111371;28;20653;-79
2022/04/01 05:36:51;;;;;;;4.20;2.40;;;;;;;;;;5111048;28;20277;-79
2022/04/01 05:39:18;;;;;;;5.57;2.23;;;;;;;;;;5111322;28;20293;-79
2022/04/01 05:41:45;;;;;;;5.83;2.30;;;;;;;;;;5110611;28;20289;-80
2022/04/01 05:44:11;;;;;;;7.03;2.43;;;;;;;;;;5085909;28;20382;-79
2022/04/01 05:46:39;;;;;;;6.67;2.03;;;;;;;;;;5091119;28;20044;-79
2022/04/01 05:49:05;;;;;;;5.10;2.47;;;;;;;;;;5090110;28;20282;-79
2022/04/01 05:51:33;;;;;;;7.67;1.90;;;;;;;;;;5095906;28;20352;-80
2022/04/01 05:53:59;;;;;;;8.53;2.20;;;;;;;;;;5079949;28;20791;-80
2022/04/01 05:56:26;;;;;;;6.83;2.07;;;;;;;;;;5090434;28;20332;-80
2022/04/01 05:58:52;;;;;;;5.80;2.07;;;;;;;;;;5090817;28;20286;-78
2022/04/01 06:01:26;;;;;;;4.93;1.80;;;;;;;;;;5090162;28;20313;-79
2022/04/01 06:03:52;;;;;;;;;;;;;;;;;;5090924;28;20294;-79
2022/04/01 06:06:29;;;;;;;5.13;2.03;;;;;;;;;;5072684;28;19964;-80
2022/04/01 06:09:08;;;;;;;4.07;1.40;;;;;;;;;;5090425;28;20048;-80
2022/04/01 06:11:43;;;;;;;5.17;1.83;;;;;;;;;;5089138;28;20879;-80
2022/04/01 06:14:09;;;;;;;3.60;1.47;;;;;;;;;;5077850;28;20329;-79
2022/04/01 06:16:41;;;;;;;3.17;1.43;;;;;;;;;;5093829;28;20792;-79
2022/04/01 06:19:14;;;;;;;5.60;1.70;;;;;;;;;;5089478;28;20347;-79
2022/04/01 06:21:47;;;;;;;4.20;1.50;;;;;;;;;;5079455;28;20819;-79
2022/04/01 06:24:32;;;;;;;7.13;1.60;;;;;;;;;;5095501;28;20358;-79
2022/04/01 06:27:00;;;;;;;3.50;1.57;;;;;;;;;;5096622;28;20301;-79
2022/04/01 06:29:29;;;;;;;8.53;2.60;;;;;;;;;;5101903;28;20818;-80
2022/04/01 06:32:02;;;;;;;3.93;1.40;;;;;;;;;;5091333;28;20059;-79
2022/04/01 06:34:33;;;;;;;3.80;1.50;;;;;;;;;;5110128;28;20358;-79
2022/04/01 06:37:03;;;;;;;6.10;2.20;;;;;;;;;;5090390;28;20377;-80
2022/04/01 06:39:47;;;;;;;6.90;1.40;;;;;;;;;;5094338;28;20351;-80
2022/04/01 06:42:19;;;;;;;4.32;1.65;;;;;;;;;;5089284;28;20808;-79
2022/04/01 06:44:46;;;;;;;3.20;1.55;;;;;;;;;;5088285;28;20588;-80
2022/04/01 06:47:12;;;;;;;4.50;1.30;;;;;;;;;;5079653;28;20043;-79
2022/04/01 06:49:38;;;;;;;4.37;1.47;;;;;;;;;;5073851;28;20286;-78
2022/04/01 06:52:04;;;;;;;3.97;1.47;;;;;;;;;;5070919;28;20305;-79
2022/04/01 06:54:30;;;;;;;6.50;1.73;;;;;;;;;;5071729;28;20302;-79
2022/04/01 06:56:56;;;;;;;5.97;1.83;;;;;;;;;;5076790;28;20298;-78
2022/04/01 06:59:23;;;;;;;3.67;1.67;;;;;;;;;;5076770;28;20379;-78
2022/04/01 07:01:49;;;;;;;4.93;1.47;;;;;;;;;;5077725;28;20365;-77
2022/04/01 07:04:15;;;;;;;4.97;1.63;;;;;;;;;;5053875;28;20185;-78
2022/04/01 07:06:41;;;;;;;4.30;1.60;;;;;;;;;;5070352;28;20048;-77
2022/04/01 07:09:07;;;;;;;2.67;1.30;;;;;;;;;;5087646;28;20044;-77
2022/04/01 07:11:34;;;;;;;5.23;1.63;;;;;;;;;;5087590;28;20044;-77
2022/04/01 07:14:00;;;;;;;5.57;1.63;;;;;;;;;;5069313;28;20316;-77
2022/04/01 07:16:26;;;;;;;3.57;2.23;;;;;;;;;;5086883;28;20051;-77
2022/04/01 07:18:52;;;;;;;6.50;1.47;;;;;;;;;;5087503;28;20056;-77
2022/04/01 07:21:18;;;;;;;5.17;1.73;;;;;;;;;;5069801;28;20289;-77
2022/04/01 07:23:45;;;;;;;5.13;2.53;;;;;;;;;;5070345;28;20136;-77
2022/04/01 07:26:11;;;;;;;4.37;1.50;;;;;;;;;;5069817;28;20209;-77
2022/04/01 07:28:37;;;;;;;5.37;1.83;;;;;;;;;;5070609;28;20361;-77
2022/04/01 07:32:29;;;;;;;4.17;1.73;;;;;;;;;;5076554;28;20043;-76
2022/04/01 07:33:49;;;;;;;3.67;1.80;;;;;;;;;;5077283;28;20391;-76
2022/04/01 07:36:15;;;;;;;4.73;1.53;;;;;;;;;;5070183;28;20294;-76
2022/04/01 07:38:41;;;;;;;5.17;1.77;;;;;;;;;;5087996;28;20610;-75
2022/04/01 07:41:07;;;;;;;4.37;1.50;;;;;;;;;;5053672;28;20568;-75
2022/04/01 07:43:34;;;;;;;6.53;1.67;;;;;;;;;;5074105;28;20499;-75
2022/04/01 07:46:00;;;;;;;4.17;1.40;;;;;;;;;;5074453;28;20502;-75
2022/04/01 07:48:26;;;;;;;5.87;1.43;;;;;;;;;;5057954;28;20414;-74
2022/04/01 07:50:52;;;;;;;4.10;1.40;;;;;;;;;;5074562;28;20161;-74
2022/04/01 07:53:18;;;;;;;3.90;2.03;;;;;;;;;;5101220;28;20050;-74
2022/04/01 07:55:48;;;;;;;5.93;1.50;;;;;;;;;;5107827;28;20046;-73
2022/04/01 07:58:15;;;;;;;5.40;1.50;;;;;;;;;;5094887;28;20087;-72
2022/04/01 08:00:41;;;;;;;2.57;1.30;;;;;;;;;;5092644;28;20047;-71
2022/04/01 08:03:08;;;;;;;5.10;1.40;;;;;;;;;;5092251;28;20075;-71
2022/04/01 08:05:34;;;;;;;2.27;1.10;;;;;;;;;;5092416;28;20498;-71
2022/04/01 08:08:00;;;;;;;3.27;1.90;;;;;;;;;;5092517;28;20078;-71
2022/04/01 08:10:26;;;;;;;4.87;1.63;;;;;;;;;;5092709;28;20051;-71
2022/04/01 08:12:52;;;;;;;3.13;1.43;;;;;;;;;;5092221;28;20056;-71
2022/04/01 08:15:19;;;;;;;3.97;1.70;;;;;;;;;;5092328;28;20184;-72
2022/04/01 08:17:45;;;;;;;5.47;1.60;;;;;;;;;;5092272;28;20139;-72
2022/04/01 08:20:12;;;;;;;3.73;1.47;;;;;;;;;;5092273;28;20139;-73
2022/04/01 08:22:41;;;;;;;3.97;1.73;;;;;;;;;;5092549;28;20059;-73
2022/04/01 08:25:08;;;;;;;4.03;1.67;;;;;;;;;;5074056;28;20494;-74
2022/04/01 08:27:34;;;;;;;5.07;2.20;;;;;;;;;;5057406;28;20055;-74
2022/04/01 08:30:00;;;;;;;5.37;2.30;;;;;;;;;;5091772;28;20049;-75
2022/04/01 08:32:29;;;;;;;4.53;1.93;;;;;;;;;;5092662;28;20051;-76
2022/04/01 08:34:55;;;;;;;4.37;2.30;;;;;;;;;;5090753;28;20409;-76
2022/04/01 08:37:21;;;;;;;5.43;1.87;;;;;;;;;;5111378;28;20047;-77
2022/04/01 08:39:47;;;;;;;4.43;2.10;;;;;;;;;;5110857;28;20105;-79
2022/04/01 08:42:13;;;;;;;3.07;2.00;;;;;;;;;;5111328;28;20533;-81
2022/04/01 08:44:41;;;;;;;5.80;2.50;;;;;;;;;;5092798;28;20045;-81
2022/04/01 08:47:10;;;;;;;5.13;2.30;;;;;;;;;;5092642;28;20043;-81
2022/04/01 08:49:36;;;;;;;6.47;2.43;;;;;;;;;;5072837;28;20048;-82
2022/04/01 08:52:04;;;;;;;4.37;2.30;;;;;;;;;;5071622;28;20036;-81
2022/04/01 08:54:34;;;;;;;6.27;3.10;;;;;;;;;;5072095;28;20082;-79
2022/04/01 08:57:00;;;;;;;5.20;2.40;;;;;;;;;;5072039;28;20047;-79
2022/04/01 08:59:30;;;;;;;4.03;2.73;;;;;;;;;;5055155;28;20494;-80
2022/04/01 09:02:06;;;;;;;4.83;2.90;;;;;;;;;;5105521;28;20101;-81
2022/04/01 09:04:32;;;;;;;7.50;3.43;;;;;;;;;;5092186;28;20051;-80
2022/04/01 09:07:09;;;;;;;6.47;3.47;;;;;;;;;;5092134;28;20056;-81
2022/04/01 09:09:35;;;;;;;5.77;2.80;;;;;;;;;;5092448;28;20517;-84
2022/04/01 09:12:05;;;;;;;6.63;3.30;;;;;;;;;;5075151;28;20036;-86
2022/04/01 09:14:32;;;;;;;4.40;2.73;;;;;;;;;;5091630;28;20087;-85
2022/04/01 09:16:58;;;;;;;8.07;3.23;;;;;;;;;;5110456;28;20079;-83
2022/04/01 09:19:34;;;;;;;7.13;2.97;;;;;;;;;;5092311;28;20054;-81
2022/04/01 09:22:16;;;;;;;6.07;3.43;;;;;;;;;;5075264;28;20055;-80
2022/04/01 09:24:56;;;;;;;5.30;3.57;;;;;;;;;;5091613;28;20555;-79
2022/04/01 09:27:41;;;;;;;5.77;3.37;;;;;;;;;;5087819;28;20498;-78
2022/04/01 09:30:09;;;;;;;5.33;3.53;;;;;;;;;;5054847;28;20048;-76
2022/04/01 09:32:43;;;;;;;5.90;3.30;;;;;;;;;;5089434;28;20131;-76
2022/04/01 09:35:11;;;;;;;7.23;3.60;;;;;;;;;;5052365;28;1052118;-75
2022/04/01 09:37:41;;;;;;;6.53;4.10;;;;;;;;;;5090344;28;20063;-75
2022/04/01 09:40:08;;;;;;;8.80;4.87;;;;;;;;;;5090234;28;20055;-74
2022/04/01 09:42:34;;;;;;;9.03;4.50;;;;;;;;;;5090853;28;20052;-75
2022/04/01 09:45:00;;;;;;;6.00;3.67;;;;;;;;;;5089918;28;20055;-74
2022/04/01 09:47:27;;;;;;;12.13;4.43;;;;;;;;;;5090259;28;20044;-74
2022/04/01 09:49:54;;;;;;;6.87;4.13;;;;;;;;;;5090295;28;20067;-74
2022/04/01 09:52:22;;;;;;;8.23;4.40;;;;;;;;;;5090171;28;20123;-74
2022/04/01 09:54:52;;;;;;;9.27;4.00;;;;;;;;;;5106694;28;20528;-74
2022/04/01 09:57:19;;;;;;;8.60;4.43;;;;;;;;;;5092677;28;20112;-74
2022/04/01 09:59:46;;;;;;;7.27;4.07;;;;;;;;;;5080602;28;20414;-73
2022/04/01 10:02:12;;;;;;;7.60;4.50;;;;;;;;;;5089102;28;20040;-73
2022/04/01 10:04:38;;;;;;;8.00;4.77;;;;;;;;;;5071481;28;20452;-73
2022/04/01 10:07:05;;;;;;;6.40;4.33;;;;;;;;;;5071415;28;20517;-73
2022/04/01 10:09:31;;;;;;;8.67;4.67;;;;;;;;;;5090216;28;20036;-73
2022/04/01 10:12:02;;;;;;;7.70;5.00;;;;;;;;;;5089978;28;20084;-72
2022/04/01 10:14:28;;;;;;;9.43;4.77;;;;;;;;;;5071693;28;20044;-72
2022/04/01 10:17:00;;;;;;;12.47;4.13;;;;;;;;;;5089789;28;20040;-72
2022/04/01 10:19:28;;;;;;;6.37;4.50;;;;;;;;;;5089616;28;20131;-71
2022/04/01 10:21:54;;;;;;;6.03;4.23;;;;;;;;;;5082121;28;20040;-72
2022/04/01 10:24:41;;;;;;;6.07;3.70;;;;;;;;;;5089734;28;20570;-71
2022/04/01 10:27:30;;;;;;;7.17;4.33;;;;;;;;;;5089489;28;20069;-71
2022/04/01 10:29:59;;;;;;;8.10;4.20;;;;;;;;;;5089765;28;20923;-71
2022/04/01 10:32:27;;;;;;;9.23;4.10;;;;;;;;;;5089388;28;20036;-71
2022/04/01 10:34:55;;;;;;;10.23;4.30;;;;;;;;;;5089652;28;20055;-71
2022/04/01 10:37:23;;;;;;;7.93;4.80;;;;;;;;;;5089445;28;20059;-70
2022/04/01 10:39:58;;;;;;;7.23;4.10;;;;;;;;;;5075167;28;20036;-70
2022/04/01 10:42:25;;;;;;;9.50;4.40;;;;;;;;;;5089458;28;20062;-69
2022/04/01 10:44:55;;;;;;;10.23;4.30;;;;;;;;;;5088765;28;20055;-69
2022/04/01 10:47:22;;;;;;;9.60;5.23;;;;;;;;;;5089488;28;20051;-69
2022/04/01 10:52:34;;;;;;;6.87;4.20;;;;;;;;;;5089632;28;20047;-69
2022/04/01 10:55:03;;;;;;;6.43;4.37;;;;;;;;;;5087880;28;20109;-68
2022/04/01 10:57:30;;;;;;;6.07;4.23;;;;;;;;;;5101962;28;20092;-68
2022/04/01 11:00:17;;;;;;;7.00;4.20;;;;;;;;;;5101371;28;20051;-68
2022/04/01 11:02:44;;;;;;;8.63;4.40;;;;;;;;;;5097330;28;20054;-68
2022/04/01 11:05:22;;;;;;;7.20;4.33;;;;;;;;;;5108567;28;20043;-68
2022/04/01 11:08:08;;;;;;;5.80;4.50;;;;;;;;;;5097047;28;20062;-68
2022/04/01 11:10:34;;;;;;;8.87;4.80;;;;;;;;;;5094702;28;20585;-67
2022/04/01 11:13:00;;;;;;;7.53;4.50;;;;;;;;;;5106436;28;20108;-68
2022/04/01 11:15:28;;;;;;;7.83;4.17;;;;;;;;;;5091531;27;20603;-68
2022/04/01 11:17:57;;;;;;;6.47;3.97;;;;;;;;;;5091435;28;20043;-68
2022/04/01 11:20:29;;;;;;;5.23;3.33;;;;;;;;;;5087065;28;20043;-68
2022/04/01 11:22:59;;;;;;;5.73;3.17;;;;;;;;;;5069676;28;20055;-68
2022/04/01 11:25:25;;;;;;;6.63;3.40;;;;;;;;;;5088920;28;20098;-68
2022/04/01 11:28:06;;;;;;;4.67;2.70;;;;;;;;;;5105730;28;20075;-68
2022/04/01 11:30:41;;;;;;;6.13;3.23;;;;;;;;;;5109266;28;20052;-68
2022/04/01 11:33:09;;;;;;;13.27;2.90;;;;;;;;;;5094574;28;20413;-67
2022/04/01 11:35:36;;;;;;;5.93;2.80;;;;;;;;;;5091640;28;20497;-67
2022/04/01 11:38:04;;;;;;;4.70;2.70;;;;;;;;;;5083877;28;20055;-67
2022/04/01 11:40:31;;;;;;;7.17;3.10;;;;;;;;;;5088798;28;20055;-67
2022/04/01 11:43:02;;;;;;;7.10;3.03;;;;;;;;;;5108631;28;20444;-67
2022/04/01 11:45:31;;;;;;;5.97;3.07;;;;;;;;;;5087114;28;20067;-67
2022/04/01 11:47:57;;;;;;;4.00;1.90;;;;;;;;;;5087320;28;20127;-67
2022/04/01 11:50:24;;;;;;;5.47;2.07;;;;;;;;;;5096835;28;20474;-67
2022/04/01 11:52:53;;;;;;;3.43;2.03;;;;;;;;;;5088149;28;20401;-67
2022/04/01 11:55:20;;;;;;;4.97;2.17;;;;;;;;;;5100375;28;20043;-67
2022/04/01 11:57:46;;;;;;;7.13;2.57;;;;;;;;;;5089566;28;20047;-67
2022/04/01 12:00:16;;;;;;;3.20;1.93;;;;;;;;;;5094548;28;20032;-67
2022/04/01 12:02:43;;;;;;;4.77;1.87;;;;;;;;;;5076561;28;20056;-67
2022/04/01 12:05:10;;;;;;;3.50;1.80;;;;;;;;;;5091747;28;20044;-67
2022/04/01 12:10:25;;;;;;;3.30;2.00;;;;;;;;;;5108307;28;20051;-67
2022/04/01 12:12:54;;;;;;;5.07;2.07;;;;;;;;;;5100852;28;20036;-67
2022/04/01 12:15:29;;;;;;;6.47;2.20;;;;;;;;;;5088941;28;20052;-67
2022/04/01 12:17:55;;;;;;;4.23;2.20;;;;;;;;;;5088487;28;20055;-67
2022/04/01 12:20:21;;;;;;;3.80;1.77;;;;;;;;;;5089126;28;20564;-67
2022/04/01 12:22:50;;;;;;;7.80;3.40;;;;;;;;;;5088546;28;20040;-67
2022/04/01 12:25:16;;;;;;;5.07;1.90;;;;;;;;;;5095897;28;20051;-66
2022/04/01 12:27:52;;;;;;;6.67;1.80;;;;;;;;;;5109057;28;20083;-66
2022/04/01 12:30:35;;;;;;;3.97;1.93;;;;;;;;;;5113202;28;20052;-66
2022/04/01 12:33:03;;;;;;;3.63;1.80;;;;;;;;;;5094351;28;20056;-67
2022/04/01 12:35:29;;;;;;;3.50;1.83;;;;;;;;;;5112033;28;20063;-66
2022/04/01 12:38:02;;;;;;;5.70;2.73;;;;;;;;;;5111979;28;20134;-67
2022/04/01 12:40:33;;;;;;;3.63;1.50;;;;;;;;;;5094233;28;20051;-66
2022/04/01 12:42:59;;;;;;;4.07;1.40;;;;;;;;;;5112224;28;20480;-66
2022/04/01 12:45:25;;;;;;;3.17;1.10;;;;;;;;;;5112005;28;20131;-67
2022/04/01 12:47:51;;;;;;;3.83;1.57;;;;;;;;;;5094250;28;20047;-67
2022/04/01 12:50:31;;;;;;;5.27;1.53;;;;;;;;;;5111623;28;20397;-67
2022/04/01 12:53:13;;;;;;;4.33;1.47;;;;;;;;;;5111981;28;20047;-66
2022/04/01 12:55:39;;;;;;;2.73;1.57;;;;;;;;;;5112045;28;20089;-67
2022/04/01 12:58:12;;;;;;;3.47;1.40;;;;;;;;;;5111457;28;20520;-66
2022/04/01 13:00:38;;;;;;;3.50;1.40;;;;;;;;;;5111510;28;20097;-66
2022/04/01 13:03:04;;;;;;;2.93;1.10;;;;;;;;;;5111715;28;20470;-66
2022/04/01 13:05:30;;;;;;;2.87;1.10;;;;;;;;;;5111768;28;20043;-66
2022/04/01 13:07:56;;;;;;;3.63;1.20;;;;;;;;;;5093882;28;20044;-67
2022/04/01 13:10:23;;;;;;;4.47;1.40;;;;;;;;;;5111693;28;20071;-66
2022/04/01 13:12:55;;;;;;;2.37;1.50;;;;;;;;;;5107850;28;20062;-66
2022/04/01 13:15:23;;;;;;;3.13;1.37;;;;;;;;;;5072383;28;20088;-66
2022/04/01 13:17:52;;;;;;;3.63;1.23;;;;;;;;;;5099376;28;20047;-66
2022/04/01 13:20:28;;;;;;;2.63;1.27;;;;;;;;;;5101094;28;20074;-66
2022/04/01 13:22:54;;;;;;;2.77;1.50;;;;;;;;;;5100649;28;20040;-66
2022/04/01 13:25:22;;;;;;;4.53;1.67;;;;;;;;;;5098838;28;20036;-66
2022/04/01 13:27:48;;;;;;;7.87;2.03;;;;;;;;;;5099170;28;20046;-66
2022/04/01 13:30:15;;;;;;;2.80;1.27;;;;;;;;;;5082680;28;20044;-66
2022/04/01 13:32:41;;;;;;;3.27;1.23;;;;;;;;;;5098854;28;20040;-66
2022/04/01 13:35:08;;;;;;;4.03;1.33;;;;;;;;;;5081080;28;20052;-66
2022/04/01 13:37:35;;;;;;;3.60;1.70;;;;;;;;;;5089246;28;20054;-66
2022/04/01 13:40:01;;;;;;;3.63;1.50;;;;;;;;;;5088777;28;20044;-66
2022/04/01 13:42:28;;;;;;;3.27;1.50;;;;;;;;;;5099012;28;20043;-66
2022/04/01 13:44:55;;;;;;;3.10;1.00;;;;;;;;;;5100329;28;20077;-66
2022/04/01 13:47:22;;;;;;;3.03;1.30;;;;;;;;;;5098338;28;20123;-66
2022/04/01 13:49:49;;;;;;;3.80;1.30;;;;;;;;;;5099070;28;20050;-66
2022/04/01 13:52:15;;;;;;;5.33;1.67;;;;;;;;;;5099840;28;20096;-66
2022/04/01 13:54:41;;;;;;;6.03;1.40;;;;;;;;;;5079385;28;20044;-66
2022/04/01 13:57:10;;;;;;;3.47;1.87;;;;;;;;;;5088871;28;20144;-66
2022/04/01 13:59:36;;;;;;;4.47;1.70;;;;;;;;;;5088852;28;20137;-66
2022/04/01 14:02:02;;;;;;;4.97;1.80;;;;;;;;;;5098556;28;20063;-66
2022/04/01 14:04:28;;;;;;;3.37;1.33;;;;;;;;;;5098427;28;20119;-66
2022/04/01 14:06:55;;;;;;;2.80;1.33;;;;;;;;;;5097622;28;20150;-66
2022/04/01 14:09:22;;;;;;;4.17;1.47;;;;;;;;;;5099865;28;20036;-66
2022/04/01 14:11:48;;;;;;;6.90;1.97;;;;;;;;;;5097245;28;20035;-66
2022/04/01 14:14:15;;;;;;;6.07;1.90;;;;;;;;;;5099916;28;20050;-66
2022/04/01 14:16:42;;;;;;;6.63;1.67;;;;;;;;;;5098344;28;20050;-66
2022/04/01 14:19:09;;;;;;;2.97;1.53;;;;;;;;;;5080187;28;20054;-66
2022/04/01 14:21:35;;;;;;;4.30;1.73;;;;;;;;;;5099885;28;20043;-66
2022/04/01 14:24:01;;;;;;;5.57;2.43;;;;;;;;;;5096911;28;20039;-66
2022/04/01 14:26:30;;;;;;;3.23;1.43;;;;;;;;;;5099390;28;20046;-67
2022/04/01 14:31:57;;;;;;;9.43;1.60;;;;;;;;;;5098151;28;20119;-66
2022/04/01 14:34:23;;;;;;;4.13;1.50;;;;;;;;;;5071143;28;20102;-67
2022/04/01 14:36:49;;;;;;;2.90;1.33;;;;;;;;;;5097468;28;20048;-66
2022/04/01 14:39:15;;;;;;;2.63;1.43;;;;;;;;;;5099201;28;20050;-67
2022/04/01 14:41:44;;;;;;;5.53;1.40;;;;;;;;;;5093876;28;20051;-67
2022/04/01 14:44:10;;;;;;;6.07;1.60;;;;;;;;;;5089288;28;20044;-67
2022/04/01 14:46:38;;;;;;;4.77;1.60;;;;;;;;;;5089212;28;20048;-67
2022/04/01 14:49:04;;;;;;;3.20;1.57;;;;;;;;;;5090042;28;20124;-68
2022/04/01 14:51:30;;;;;;;5.73;1.80;;;;;;;;;;5090476;28;20398;-67
2022/04/01 14:53:56;;;;;;;2.83;1.40;;;;;;;;;;5089555;28;20093;-67
2022/04/01 14:56:22;;;;;;;4.87;1.70;;;;;;;;;;5088998;28;20040;-67
2022/04/01 14:58:48;;;;;;;3.97;2.40;;;;;;;;;;5088692;28;20051;-67
2022/04/01 15:01:14;;;;;;;5.47;1.60;;;;;;;;;;5088838;28;20426;-67
2022/04/01 15:03:40;;;;;;;2.77;1.20;;;;;;;;;;5099137;28;20040;-67